createdAt,value
2022-12-27T00:02:00.562Z,99160.88
2022-12-27T00:04:27.649Z,99153.88
2022-12-27T00:06:54.462Z,99154.84
2022-12-27T00:09:21.161Z,99151.56
2022-12-27T00:11:47.839Z,99153.97
2022-12-27T00:14:14.882Z,99149.50
2022-12-27T00:16:41.578Z,99146.81
2022-12-27T00:19:08.261Z,99148.16
2022-12-27T00:21:36.340Z,99149.50
2022-12-27T00:24:02.918Z,99145.72
2022-12-27T00:26:31.939Z,99129.38
2022-12-27T00:28:59.434Z,99149.50
2022-12-27T00:31:29.036Z,99147.19
2022-12-27T00:33:57.857Z,99143.06
2022-12-27T00:36:26.759Z,99138.81
2022-12-27T00:38:54.209Z,99129.38
2022-12-27T00:41:21.506Z,99131.53
2022-12-27T00:43:48.939Z,99127.28
2022-12-27T00:46:16.299Z,99134.81
2022-12-27T00:48:43.170Z,99129.97
2022-12-27T00:51:16.104Z,99120.63
2022-12-27T00:53:43.160Z,99129.13
2022-12-27T00:56:16.269Z,99130.09
2022-12-27T00:58:43.245Z,99128.03
2022-12-27T01:01:13.804Z,99129.13
2022-12-27T01:03:40.631Z,99112.88
2022-12-27T01:06:13.515Z,99125.84
2022-12-27T01:08:40.594Z,99117.72
2022-12-27T01:11:08.359Z,99120.88
2022-12-27T01:13:35.973Z,99122.81
2022-12-27T01:16:02.601Z,99115.53
2022-12-27T01:18:29.190Z,99117.81
2022-12-27T01:20:55.774Z,99120.28
2022-12-27T01:23:22.446Z,99120.13
2022-12-27T01:25:49.071Z,99110.19
2022-12-27T01:28:15.701Z,99110.56
2022-12-27T01:30:42.349Z,99104.88
2022-12-27T01:33:08.906Z,99112.72
2022-12-27T01:35:35.599Z,99114.56
2022-12-27T01:38:02.159Z,99119.06
2022-12-27T01:40:28.791Z,99099.38
2022-12-27T01:42:56.817Z,99098.31
2022-12-27T01:45:24.717Z,99095.75
2022-12-27T01:48:19.477Z,99092.97
2022-12-27T01:50:56.423Z,99085.94
2022-12-27T01:53:30.087Z,99089.44
2022-12-27T01:56:24.807Z,99088.72
2022-12-27T01:59:02.717Z,99086.28
2022-12-27T02:01:37.900Z,99066.53
2022-12-27T02:04:09.309Z,99066.66
2022-12-27T02:06:38.572Z,99064.34
2022-12-27T02:09:35.104Z,99066.06
2022-12-27T02:12:05.577Z,99077.19
2022-12-27T02:14:41.046Z,99071.63
2022-12-27T02:17:15.098Z,99071.88
2022-12-27T02:19:41.601Z,99070.66
2022-12-27T02:22:14.200Z,99054.19
2022-12-27T02:25:02.290Z,99062.66
2022-12-27T02:28:07.958Z,99062.41
2022-12-27T02:30:35.827Z,99069.69
2022-12-27T02:33:18.655Z,99061.19
2022-12-27T02:35:53.486Z,99058.06
2022-12-27T02:38:42.631Z,99060.47
2022-12-27T02:41:30.452Z,99063.00
2022-12-27T02:44:16.330Z,99067.38
2022-12-27T02:47:02.965Z,99066.41
2022-12-27T02:49:49.356Z,99061.44
2022-12-27T02:52:49.860Z,99065.81
2022-12-27T02:55:25.553Z,99062.16
2022-12-27T02:58:01.242Z,99057.09
2022-12-27T03:00:51.601Z,99053.53
2022-12-27T03:03:39.634Z,99047.88
2022-12-27T03:06:27.802Z,99048.47
2022-12-27T03:09:04.494Z,99047.63
2022-12-27T03:11:59.594Z,99046.66
2022-12-27T03:14:50.447Z,99043.50
2022-12-27T03:17:49.156Z,99035.75
2022-12-27T03:20:36.919Z,99033.81
2022-12-27T03:23:22.727Z,99041.81
2022-12-27T03:25:52.145Z,99044.84
2022-12-27T03:28:44.662Z,99038.41
2022-12-27T03:31:48.043Z,99043.50
2022-12-27T03:34:32.375Z,99043.25
2022-12-27T03:37:32.554Z,99035.16
2022-12-27T03:40:15.689Z,99038.41
2022-12-27T03:43:07.846Z,99027.25
2022-12-27T03:46:05.070Z,99034.41
2022-12-27T03:48:39.127Z,99035.84
2022-12-27T03:51:07.541Z,99030.06
2022-12-27T03:53:42.051Z,99043.41
2022-12-27T03:56:10.149Z,99043.41
2022-12-27T03:58:36.824Z,99037.56
2022-12-27T04:01:03.750Z,99045.94
2022-12-27T04:03:30.371Z,99054.88
2022-12-27T04:05:57.161Z,99050.16
2022-12-27T04:08:42.184Z,99047.63
2022-12-27T04:11:27.584Z,99046.53
2022-12-27T04:14:12.539Z,99041.81
2022-12-27T04:16:57.819Z,99043.72
2022-12-27T04:19:42.817Z,99036.22
2022-12-27T04:22:27.956Z,99035.88
2022-12-27T04:25:13.096Z,99039.25
2022-12-27T04:27:58.425Z,99036.56
2022-12-27T04:30:43.297Z,99026.41
2022-12-27T04:33:28.217Z,99033.66
2022-12-27T04:35:54.880Z,99028.47
2022-12-27T04:38:21.571Z,99039.13
2022-12-27T04:41:06.688Z,99047.38
2022-12-27T04:43:51.517Z,99046.19
2022-12-27T04:46:42.607Z,99053.44
2022-12-27T04:49:39.148Z,99054.16
2022-12-27T04:52:33.923Z,99059.59
2022-12-27T04:55:17.137Z,99055.84
2022-12-27T04:57:43.836Z,99059.00
2022-12-27T05:00:29.448Z,99053.88
2022-12-27T05:02:57.228Z,99069.06
2022-12-27T05:05:24.985Z,99045.50
2022-12-27T05:08:11.506Z,99062.59
2022-12-27T05:10:56.834Z,99064.25
2022-12-27T05:13:42.335Z,99049.97
2022-12-27T05:16:09.136Z,99062.81
2022-12-27T05:18:35.787Z,99047.41
2022-12-27T05:21:06.728Z,99053.84
2022-12-27T05:23:58.832Z,99053.84
2022-12-27T05:26:29.983Z,99044.91
2022-12-27T05:28:59.031Z,99048.34
2022-12-27T05:31:27.964Z,99036.50
2022-12-27T05:33:54.722Z,99046.81
2022-12-27T05:36:21.986Z,99050.06
2022-12-27T05:38:49.020Z,99054.78
2022-12-27T05:41:16.274Z,99041.34
2022-12-27T05:43:43.040Z,99057.34
2022-12-27T05:46:21.010Z,99051.25
2022-12-27T05:48:47.952Z,99052.22
2022-12-27T05:51:20.059Z,99046.19
2022-12-27T05:53:47.971Z,99051.59
2022-12-27T05:56:16.760Z,99054.88
2022-12-27T05:58:43.779Z,99049.69
2022-12-27T06:01:16.667Z,99048.22
2022-12-27T06:03:43.583Z,99056.94
2022-12-27T06:06:10.670Z,99055.47
2022-12-27T06:08:38.494Z,99058.75
2022-12-27T06:11:09.340Z,99064.34
2022-12-27T06:13:37.071Z,99059.88
2022-12-27T06:16:05.367Z,99067.44
2022-12-27T06:18:34.839Z,99052.88
2022-12-27T06:21:06.977Z,99059.09
2022-12-27T06:23:34.955Z,99046.63
2022-12-27T06:26:11.189Z,99067.00
2022-12-27T06:28:37.766Z,99064.44
2022-12-27T06:31:04.814Z,99059.25
2022-12-27T06:33:32.173Z,99053.44
2022-12-27T06:35:59.017Z,99053.56
2022-12-27T06:38:25.648Z,99057.06
2022-12-27T06:40:52.270Z,99050.97
2022-12-27T06:43:18.872Z,99043.94
2022-12-27T06:45:45.554Z,99067.19
2022-12-27T06:48:12.159Z,99065.81
2022-12-27T06:50:38.737Z,99050.00
2022-12-27T06:53:05.370Z,99052.47
2022-12-27T06:55:31.967Z,99047.31
2022-12-27T06:57:58.583Z,99044.69
2022-12-27T07:00:25.172Z,99056.06
2022-12-27T07:02:51.854Z,99057.31
2022-12-27T07:05:18.562Z,99045.63
2022-12-27T07:07:45.156Z,99057.03
2022-12-27T07:10:11.800Z,99044.88
2022-12-27T07:12:38.698Z,99052.28
2022-12-27T07:15:06.834Z,99051.47
2022-12-27T07:17:36.062Z,99050.91
2022-12-27T07:20:04.779Z,99054.56
2022-12-27T07:22:31.493Z,99060.66
2022-12-27T07:24:58.363Z,99041.94
2022-12-27T07:27:25.336Z,99059.63
2022-12-27T07:29:52.017Z,99059.97
2022-12-27T07:32:18.818Z,99052.44
2022-12-27T07:34:45.447Z,99069.63
2022-12-27T07:37:12.139Z,99066.38
2022-12-27T07:39:38.775Z,99057.41
2022-12-27T07:42:08.399Z,99065.88
2022-12-27T07:44:35.616Z,99058.84
2022-12-27T07:47:02.211Z,99062.69
2022-12-27T07:49:28.859Z,99076.84
2022-12-27T07:51:55.542Z,99058.94
2022-12-27T07:54:22.428Z,99066.25
2022-12-27T07:56:49.012Z,99077.97
2022-12-27T07:59:15.649Z,99070.38
2022-12-27T08:02:00.806Z,99077.16
2022-12-27T08:04:27.713Z,99084.16
2022-12-27T08:07:06.622Z,99089.28
2022-12-27T08:09:38.032Z,99082.56
2022-12-27T08:12:04.941Z,99072.34
2022-12-27T08:14:31.564Z,99080.25
2022-12-27T08:17:03.913Z,99068.47
2022-12-27T08:19:30.543Z,99064.69
2022-12-27T08:21:57.103Z,99060.91
2022-12-27T08:24:24.591Z,99078.25
2022-12-27T08:26:51.209Z,99088.19
2022-12-27T08:29:17.814Z,99071.41
2022-12-27T08:31:44.489Z,99076.69
2022-12-27T08:34:11.126Z,99074.38
2022-12-27T08:39:24.639Z,99071.75
2022-12-27T08:41:53.296Z,99071.09
2022-12-27T08:44:19.881Z,99039.69
2022-12-27T08:46:46.568Z,99060.53
2022-12-27T08:49:13.195Z,99063.16
2022-12-27T08:51:41.467Z,99062.16
2022-12-27T08:54:09.037Z,99058.31
2022-12-27T08:56:36.101Z,99044.31
2022-12-27T08:59:03.073Z,99043.28
2022-12-27T09:01:29.914Z,99063.81
2022-12-27T09:03:56.650Z,99044.38
2022-12-27T09:06:25.695Z,99047.94
2022-12-27T09:08:53.002Z,99033.28
2022-12-27T09:11:25.507Z,99028.59
2022-12-27T09:13:52.287Z,99028.84
2022-12-27T09:16:28.831Z,99014.81
2022-12-27T09:18:57.469Z,99014.47
2022-12-27T09:21:26.456Z,99015.41
2022-12-27T09:23:54.233Z,99023.66
2022-12-27T09:26:29.296Z,99024.88
2022-12-27T09:28:57.390Z,99027.03
2022-12-27T09:31:24.774Z,99033.03
2022-12-27T09:33:52.640Z,99027.53
2022-12-27T09:36:22.122Z,99036.19
2022-12-27T09:38:49.976Z,99028.56
2022-12-27T09:44:35.336Z,99034.75
2022-12-27T09:47:15.347Z,99031.97
2022-12-27T09:49:45.684Z,99030.03
2022-12-27T09:52:18.006Z,99028.78
2022-12-27T09:54:44.535Z,99033.69
2022-12-27T09:57:20.397Z,99024.25
2022-12-27T09:59:52.836Z,99025.53
2022-12-27T10:02:25.355Z,99019.97
2022-12-27T10:05:19.912Z,99007.69
2022-12-27T10:08:06.907Z,98995.53
2022-12-27T10:10:44.486Z,99000.13
2022-12-27T10:13:27.815Z,98995.47
2022-12-27T10:16:13.333Z,98994.34
2022-12-27T10:19:01.305Z,98997.63
2022-12-27T10:21:30.401Z,98998.44
2022-12-27T10:24:06.635Z,99006.88
2022-12-27T10:26:33.279Z,98996.31
2022-12-27T10:29:04.642Z,98985.69
2022-12-27T10:31:32.499Z,98993.34
2022-12-27T10:34:00.396Z,98987.13
2022-12-27T10:36:30.567Z,98984.25
2022-12-27T10:38:57.325Z,98989.47
2022-12-27T10:41:57.267Z,98966.50
2022-12-27T10:44:24.110Z,98970.94
2022-12-27T10:46:53.960Z,98967.94
2022-12-27T10:49:24.200Z,98970.59
2022-12-27T10:51:54.083Z,98966.19
2022-12-27T10:54:20.700Z,98966.91
2022-12-27T10:56:47.635Z,98956.03
2022-12-27T10:59:21.866Z,98962.78
2022-12-27T11:02:10.345Z,98954.72
2022-12-27T11:04:37.203Z,98949.63
2022-12-27T11:07:03.751Z,98942.13
2022-12-27T11:09:32.667Z,98944.50
2022-12-27T11:12:14.420Z,98948.63
2022-12-27T11:14:53.771Z,98948.16
2022-12-27T11:17:24.054Z,98947.84
2022-12-27T11:19:50.820Z,98936.22
2022-12-27T11:22:18.138Z,98938.91
2022-12-27T11:24:48.268Z,98938.72
2022-12-27T11:27:25.823Z,98941.44
2022-12-27T11:29:56.148Z,98927.47
2022-12-27T11:32:24.091Z,98933.59
2022-12-27T11:34:54.234Z,98931.63
2022-12-27T11:37:24.513Z,98931.53
2022-12-27T11:40:21.550Z,98916.66
2022-12-27T11:42:53.049Z,98919.31
2022-12-27T11:45:26.662Z,98899.94
2022-12-27T11:48:06.501Z,98892.75
2022-12-27T11:51:15.360Z,98897.03
2022-12-27T11:54:14.385Z,98896.84
2022-12-27T11:56:48.101Z,98894.94
2022-12-27T11:59:29.542Z,98891.84
2022-12-27T12:02:14.249Z,98893.22
2022-12-27T12:04:59.724Z,98895.03
2022-12-27T12:07:35.618Z,98903.16
2022-12-27T12:10:25.387Z,98895.25
2022-12-27T12:13:19.814Z,98881.75
2022-12-27T12:15:46.406Z,98889.03
2022-12-27T12:18:27.875Z,98890.66
2022-12-27T12:21:22.218Z,98882.75
2022-12-27T12:24:08.347Z,98889.63
2022-12-27T12:26:55.558Z,98872.28
2022-12-27T12:29:47.356Z,98882.88
2022-12-27T12:32:53.705Z,98887.81
2022-12-27T12:35:44.638Z,98890.88
2022-12-27T12:38:27.789Z,98889.75
2022-12-27T12:41:03.227Z,98896.00
2022-12-27T12:43:39.142Z,98909.00
2022-12-27T12:46:42.734Z,98901.84
2022-12-27T12:49:28.140Z,98890.69
2022-12-27T12:52:16.160Z,98906.53
2022-12-27T12:54:42.685Z,98908.69
2022-12-27T12:57:28.117Z,98889.41
2022-12-27T13:00:04.858Z,98892.19
2022-12-27T13:02:34.665Z,98884.28
2022-12-27T13:05:29.779Z,98883.50
2022-12-27T13:08:10.021Z,98882.38
2022-12-27T13:11:20.493Z,98876.41
2022-12-27T13:14:05.649Z,98877.38
2022-12-27T13:16:55.404Z,98878.56
2022-12-27T13:19:46.371Z,98886.72
2022-12-27T13:22:25.267Z,98877.50
2022-12-27T13:25:07.127Z,98890.53
2022-12-27T13:27:43.046Z,98882.88
2022-12-27T13:30:22.562Z,98879.88
2022-12-27T13:33:07.648Z,98888.09
2022-12-27T13:35:54.443Z,98890.13
2022-12-27T13:38:24.638Z,98886.66
2022-12-27T13:41:09.175Z,98898.78
2022-12-27T13:43:41.740Z,98898.66
2022-12-27T13:46:23.534Z,98892.22
2022-12-27T13:49:11.805Z,98888.16
2022-12-27T13:51:42.657Z,98885.41
2022-12-27T13:54:37.124Z,98874.97
2022-12-27T13:57:19.654Z,98867.31
2022-12-27T13:59:48.992Z,98876.41
2022-12-27T14:02:37.058Z,98892.34
2022-12-27T14:05:52.186Z,98889.84
2022-12-27T14:08:37.086Z,98893.88
2022-12-27T14:11:17.224Z,98884.13
2022-12-27T14:13:44.515Z,98877.28
2022-12-27T14:16:22.608Z,98896.28
2022-12-27T14:18:52.083Z,98883.78
2022-12-27T14:21:41.488Z,98885.06
2022-12-27T14:24:45.832Z,98875.72
2022-12-27T14:27:40.030Z,98882.78
2022-12-27T14:30:12.242Z,98882.41
2022-12-27T14:33:02.118Z,98880.84
2022-12-27T14:36:06.510Z,98893.25
2022-12-27T14:39:01.045Z,98895.84
2022-12-27T14:41:54.820Z,98900.69
2022-12-27T14:44:58.666Z,98902.84
2022-12-27T14:48:06.817Z,98908.94
2022-12-27T14:50:55.035Z,98912.25
2022-12-27T14:53:43.064Z,98905.22
2022-12-27T14:56:21.832Z,98905.13
2022-12-27T14:59:06.166Z,98915.88
2022-12-27T15:01:44.908Z,98918.88
2022-12-27T15:04:28.452Z,98911.28
2022-12-27T15:07:22.410Z,98921.38
2022-12-27T15:10:04.690Z,98926.81
2022-12-27T15:12:55.774Z,98931.19
2022-12-27T15:15:41.145Z,98941.09
2022-12-27T15:18:41.375Z,98945.22
2022-12-27T15:21:26.845Z,98947.28
2022-12-27T15:24:30.015Z,98933.34
2022-12-27T15:27:26.787Z,98941.38
2022-12-27T15:30:35.309Z,98945.91
2022-12-27T15:33:21.634Z,98935.41
2022-12-27T15:35:55.949Z,98932.44
2022-12-27T15:38:52.890Z,98945.91
2022-12-27T15:41:47.264Z,98948.59
2022-12-27T15:44:32.207Z,98948.81
2022-12-27T15:47:31.844Z,98941.78
2022-12-27T15:50:35.680Z,98950.94
2022-12-27T15:53:12.227Z,98955.81
2022-12-27T15:55:57.317Z,98961.78
2022-12-27T15:58:25.578Z,98948.03
2022-12-27T16:01:22.049Z,98963.47
2022-12-27T16:03:53.449Z,98969.06
2022-12-27T16:06:50.797Z,98977.03
2022-12-27T16:09:23.466Z,98976.66
2022-12-27T16:12:11.459Z,98990.75
2022-12-27T16:14:40.563Z,98993.06
2022-12-27T16:17:48.116Z,98991.28
2022-12-27T16:20:18.105Z,98987.19
2022-12-27T16:22:55.419Z,98973.94
2022-12-27T16:25:31.303Z,98995.31
2022-12-27T16:28:25.492Z,99001.66
2022-12-27T16:30:57.700Z,99002.56
2022-12-27T16:33:27.350Z,98999.38
2022-12-27T16:36:12.480Z,99007.56
2022-12-27T16:38:45.289Z,99014.84
2022-12-27T16:41:41.235Z,99011.31
2022-12-27T16:44:38.589Z,99007.81
2022-12-27T16:47:43.988Z,99019.97
2022-12-27T16:50:32.609Z,99024.03
2022-12-27T16:53:07.862Z,99014.47
2022-12-27T16:56:09.445Z,99001.84
2022-12-27T16:58:38.093Z,99016.53
2022-12-27T17:01:18.783Z,99023.59
2022-12-27T17:03:47.916Z,99004.06
2022-12-27T17:06:34.052Z,99022.63
2022-12-27T17:09:10.259Z,99026.56
2022-12-27T17:11:52.119Z,99034.19
2022-12-27T17:14:20.284Z,99035.16
2022-12-27T17:17:23.259Z,99032.13
2022-12-27T17:20:06.522Z,99023.31
2022-12-27T17:22:35.880Z,99031.72
2022-12-27T17:25:03.949Z,99040.66
2022-12-27T17:28:08.022Z,99043.34
2022-12-27T17:30:46.661Z,99046.53
2022-12-27T17:33:26.103Z,99032.84
2022-12-27T17:36:26.592Z,99045.22
2022-12-27T17:39:18.432Z,99055.38
2022-12-27T17:42:24.003Z,99061.84
2022-12-27T17:45:08.994Z,99062.69
2022-12-27T17:47:57.246Z,99078.09
2022-12-27T17:50:26.465Z,99074.38
2022-12-27T17:53:30.620Z,99082.00
2022-12-27T17:56:40.240Z,99083.91
2022-12-27T17:59:08.511Z,99102.00
2022-12-27T18:01:40.659Z,99100.78
2022-12-27T18:04:07.982Z,99099.78
2022-12-27T18:06:37.119Z,99091.69
2022-12-27T18:09:04.575Z,99097.06
2022-12-27T18:11:34.885Z,99099.78
2022-12-27T18:14:01.938Z,99100.47
2022-12-27T18:16:47.777Z,99105.06
2022-12-27T18:19:19.659Z,99099.69
2022-12-27T18:21:58.274Z,99111.50
2022-12-27T18:24:31.520Z,99105.75
2022-12-27T18:27:06.637Z,99117.09
2022-12-27T18:29:34.186Z,99110.72
2022-12-27T18:32:05.427Z,99103.97
2022-12-27T18:34:46.135Z,99114.78
2022-12-27T18:37:23.934Z,99116.16
2022-12-27T18:39:55.773Z,99109.41
2022-12-27T18:42:32.655Z,99110.75
2022-12-27T18:45:19.360Z,99091.53
2022-12-27T18:47:48.573Z,99101.50
2022-12-27T18:50:25.089Z,99097.25
2022-12-27T18:53:22.576Z,99093.91
2022-12-27T18:56:01.035Z,99091.19
2022-12-27T18:58:27.995Z,99101.31
2022-12-27T19:01:04.100Z,99093.91
2022-12-27T19:03:36.534Z,99101.50
2022-12-27T19:06:10.940Z,99094.91
2022-12-27T19:08:44.148Z,99107.56
2022-12-27T19:11:28.415Z,99111.78
2022-12-27T19:14:00.461Z,99121.25
2022-12-27T19:16:30.097Z,99116.13
2022-12-27T19:19:02.471Z,99119.50
2022-12-27T19:21:32.940Z,99118.81
2022-12-27T19:24:19.592Z,99139.44
2022-12-27T19:26:46.194Z,99147.53
2022-12-27T19:29:20.338Z,99149.53
2022-12-27T19:32:09.000Z,99151.22
2022-12-27T19:34:57.625Z,99160.69
2022-12-27T19:37:29.583Z,99166.78
2022-12-27T19:39:57.212Z,99157.63
2022-12-27T19:42:30.712Z,99168.44
2022-12-27T19:44:57.417Z,99160.53
2022-12-27T19:47:24.061Z,99146.16
2022-12-27T19:49:50.643Z,99152.06
2022-12-27T19:52:23.861Z,99158.00
2022-12-27T19:54:52.868Z,99151.06
2022-12-27T19:57:19.843Z,99147.88
2022-12-27T19:59:46.483Z,99167.63
2022-12-27T20:02:13.575Z,99169.13
2022-12-27T20:04:40.293Z,99164.06
2022-12-27T20:07:06.997Z,99163.88
2022-12-27T20:09:33.588Z,99156.94
2022-12-27T20:12:00.182Z,99174.69
2022-12-27T20:14:26.923Z,99166.06
2022-12-27T20:16:53.583Z,99164.19
2022-12-27T20:19:20.304Z,99164.06
2022-12-27T20:21:47.153Z,99167.41
2022-12-27T20:24:14.164Z,99171.13
2022-12-27T20:26:41.735Z,99168.09
2022-12-27T20:29:09.265Z,99167.06
2022-12-27T20:31:43.890Z,99174.38
2022-12-27T20:34:12.177Z,99179.94
2022-12-27T20:36:38.776Z,99186.19
2022-12-27T20:39:07.269Z,99187.22
2022-12-27T20:41:34.278Z,99181.16
2022-12-27T20:44:01.037Z,99187.38
2022-12-27T20:46:27.902Z,99188.06
2022-12-27T20:48:55.777Z,99185.34
2022-12-27T20:51:25.574Z,99191.44
2022-12-27T20:53:56.895Z,99201.59
2022-12-27T20:56:24.657Z,99201.59
2022-12-27T20:58:51.659Z,99203.78
2022-12-27T21:01:23.725Z,99203.47
2022-12-27T21:03:50.476Z,99209.22
2022-12-27T21:06:20.698Z,99200.94
2022-12-27T21:08:55.962Z,99192.19
2022-12-27T21:11:27.082Z,99209.56
2022-12-27T21:13:54.713Z,99212.28
2022-12-27T21:16:23.835Z,99226.13
2022-12-27T21:18:51.016Z,99221.06
2022-12-27T21:21:20.083Z,99223.63
2022-12-27T21:23:47.602Z,99223.09
2022-12-27T21:26:21.151Z,99224.13
2022-12-27T21:28:48.549Z,99217.88
2022-12-27T21:31:17.214Z,99219.06
2022-12-27T21:33:44.544Z,99226.50
2022-12-27T21:36:22.736Z,99226.34
2022-12-27T21:38:49.965Z,99229.88
2022-12-27T21:41:28.527Z,99218.38
2022-12-27T21:43:55.151Z,99225.34
2022-12-27T21:46:39.846Z,99232.91
2022-12-27T21:49:13.550Z,99238.00
2022-12-27T21:51:41.630Z,99236.28
2022-12-27T21:54:09.175Z,99225.13
2022-12-27T21:56:35.837Z,99236.78
2022-12-27T21:59:05.530Z,99225.63
2022-12-27T22:01:51.265Z,99233.09
2022-12-27T22:04:21.080Z,99242.03
2022-12-27T22:06:48.214Z,99249.09
2022-12-27T22:09:15.516Z,99245.22
2022-12-27T22:11:42.501Z,99249.59
2022-12-27T22:14:09.244Z,99250.63
2022-12-27T22:16:37.976Z,99247.59
2022-12-27T22:19:12.624Z,99260.94
2022-12-27T22:21:40.579Z,99257.38
2022-12-27T22:24:10.682Z,99252.94
2022-12-27T22:26:37.718Z,99248.00
2022-12-27T22:29:05.662Z,99251.72
2022-12-27T22:31:35.432Z,99250.84
2022-12-27T22:34:03.549Z,99260.94
2022-12-27T22:36:30.686Z,99256.31
2022-12-27T22:38:58.821Z,99261.72
2022-12-27T22:41:28.681Z,99250.00
2022-12-27T22:43:57.339Z,99260.19
2022-12-27T22:46:24.311Z,99252.47
2022-12-27T22:48:55.925Z,99266.09
2022-12-27T22:51:28.629Z,99269.00
2022-12-27T22:53:56.725Z,99268.41
2022-12-27T22:56:29.525Z,99271.81
2022-12-27T22:58:56.226Z,99267.16
2022-12-27T23:01:27.704Z,99267.47
2022-12-27T23:03:55.636Z,99257.72
2022-12-27T23:06:23.702Z,99265.16
2022-12-27T23:08:51.029Z,99262.09
2022-12-27T23:11:20.989Z,99263.09
2022-12-27T23:13:49.187Z,99259.28
2022-12-27T23:16:16.230Z,99253.19
2022-12-27T23:18:42.972Z,99256.53
2022-12-27T23:21:21.332Z,99253.50
2022-12-27T23:23:51.234Z,99253.31
2022-12-27T23:26:21.139Z,99255.13
2022-12-27T23:28:48.762Z,99250.53
2022-12-27T23:31:15.789Z,99247.28
2022-12-27T23:33:43.726Z,99233.72
2022-12-27T23:36:12.540Z,99248.84
2022-12-27T23:38:40.291Z,99239.22
2022-12-27T23:41:08.776Z,99252.59
2022-12-27T23:43:55.447Z,99254.25
2022-12-27T23:46:27.450Z,99255.25
2022-12-27T23:48:55.050Z,99265.75
2022-12-27T23:51:22.392Z,99254.22
2022-12-27T23:53:49.871Z,99261.97
2022-12-27T23:56:18.558Z,99273.41
2022-12-27T23:58:46.425Z,99266.13
